createdAt,value
2017-11-25T00:01:52.459Z,8.60
2017-11-25T00:04:20.758Z,8.80
2017-11-25T00:06:48.320Z,8.80
2017-11-25T00:09:15.851Z,8.70
2017-11-25T00:11:43.374Z,8.60
2017-11-25T00:14:10.948Z,8.80
2017-11-25T00:16:39.286Z,8.80
2017-11-25T00:19:07.602Z,8.90
2017-11-25T00:21:35.147Z,8.80
2017-11-25T00:24:02.709Z,8.80
2017-11-25T00:26:30.245Z,8.80
2017-11-25T00:28:57.799Z,8.80
2017-11-25T00:31:25.336Z,8.80
2017-11-25T00:33:53.655Z,8.80
2017-11-25T00:36:21.207Z,8.80
2017-11-25T00:38:48.766Z,8.90
2017-11-25T00:41:16.313Z,8.90
2017-11-25T00:43:43.849Z,8.90
2017-11-25T00:46:11.407Z,9.00
2017-11-25T00:48:38.978Z,8.90
2017-11-25T00:51:06.562Z,8.90
2017-11-25T00:53:34.122Z,8.90
2017-11-25T00:56:01.655Z,8.90
2017-11-25T00:58:29.198Z,8.90
2017-11-25T01:00:56.859Z,8.90
2017-11-25T01:03:24.402Z,8.80
2017-11-25T01:05:51.949Z,8.70
2017-11-25T01:08:20.250Z,8.80
2017-11-25T01:10:47.810Z,8.70
2017-11-25T01:13:15.335Z,8.70
2017-11-25T01:15:43.675Z,8.70
2017-11-25T01:18:12.034Z,8.70
2017-11-25T01:20:39.617Z,8.70
2017-11-25T01:23:07.256Z,8.70
2017-11-25T01:25:34.840Z,8.70
2017-11-25T01:28:02.438Z,8.80
2017-11-25T01:30:30.014Z,8.70
2017-11-25T01:32:58.371Z,8.70
2017-11-25T01:35:25.966Z,8.70
2017-11-25T01:37:53.545Z,8.70
2017-11-25T01:40:21.150Z,8.70
2017-11-25T01:42:48.742Z,8.70
2017-11-25T01:45:17.096Z,8.60
2017-11-25T01:47:44.683Z,8.70
2017-11-25T01:50:12.286Z,8.60
2017-11-25T01:52:39.890Z,8.50
2017-11-25T01:55:07.509Z,8.50
2017-11-25T01:57:35.069Z,8.50
2017-11-25T02:00:04.235Z,8.40
2017-11-25T02:02:31.826Z,8.40
2017-11-25T02:04:59.414Z,8.40
2017-11-25T02:07:27.029Z,8.50
2017-11-25T02:09:54.604Z,8.50
2017-11-25T02:12:22.213Z,8.40
2017-11-25T02:14:49.800Z,8.40
2017-11-25T02:17:17.426Z,8.40
2017-11-25T02:19:45.021Z,8.50
2017-11-25T02:22:12.626Z,8.50
2017-11-25T02:24:41.011Z,8.60
2017-11-25T02:27:09.358Z,8.60
2017-11-25T02:29:36.955Z,8.60
2017-11-25T02:32:04.562Z,8.50
2017-11-25T02:34:32.190Z,8.50
2017-11-25T02:36:59.774Z,8.50
2017-11-25T02:39:27.388Z,8.60
2017-11-25T02:41:54.978Z,8.50
2017-11-25T02:44:22.594Z,8.50
2017-11-25T02:46:50.952Z,8.50
2017-11-25T02:49:18.550Z,8.50
2017-11-25T02:51:46.149Z,8.50
2017-11-25T02:54:13.748Z,8.60
2017-11-25T02:56:42.112Z,8.50
2017-11-25T02:59:09.707Z,8.50
2017-11-25T03:01:37.315Z,8.60
2017-11-25T03:04:04.901Z,8.50
2017-11-25T03:06:32.505Z,8.50
2017-11-25T03:09:00.098Z,8.50
2017-11-25T03:11:27.678Z,8.50
2017-11-25T03:13:55.278Z,8.50
2017-11-25T03:16:22.865Z,8.50
2017-11-25T03:18:50.505Z,8.50
2017-11-25T03:21:18.093Z,8.40
2017-11-25T03:23:45.684Z,8.40
2017-11-25T03:26:13.264Z,8.50
2017-11-25T03:28:41.621Z,8.40
2017-11-25T03:31:09.207Z,8.40
2017-11-25T03:33:37.550Z,8.30
2017-11-25T03:36:05.153Z,8.30
2017-11-25T03:38:32.743Z,8.40
2017-11-25T03:41:00.337Z,8.50
2017-11-25T03:43:27.916Z,8.40
2017-11-25T03:45:56.289Z,8.30
2017-11-25T03:48:23.880Z,8.30
2017-11-25T03:50:51.470Z,8.40
2017-11-25T03:53:19.046Z,8.50
2017-11-25T03:55:46.685Z,8.50
2017-11-25T03:58:14.246Z,8.50
2017-11-25T04:00:41.860Z,8.40
2017-11-25T04:03:10.206Z,8.60
2017-11-25T04:05:37.822Z,8.60
2017-11-25T04:08:05.393Z,8.60
2017-11-25T04:10:33.000Z,8.50
2017-11-25T04:13:01.374Z,8.50
2017-11-25T04:15:28.960Z,8.50
2017-11-25T04:17:56.577Z,8.50
2017-11-25T04:20:24.138Z,8.50
2017-11-25T04:22:51.742Z,8.50
2017-11-25T04:25:20.099Z,8.30
2017-11-25T04:27:47.702Z,8.30
2017-11-25T04:30:15.302Z,8.30
2017-11-25T04:32:42.886Z,8.20
2017-11-25T04:35:10.495Z,8.10
2017-11-25T04:37:38.083Z,8.10
2017-11-25T04:40:05.654Z,8.10
2017-11-25T04:42:33.264Z,8.10
2017-11-25T04:45:00.866Z,8.00
2017-11-25T04:47:28.455Z,7.80
2017-11-25T04:49:56.057Z,7.80
2017-11-25T05:05:25.837Z,7.60
2017-11-25T05:07:54.172Z,7.60
2017-11-25T05:10:21.754Z,7.50
2017-11-25T05:12:50.153Z,7.60
2017-11-25T05:15:18.502Z,7.60
2017-11-25T05:17:46.117Z,7.50
2017-11-25T05:20:13.700Z,7.50
2017-11-25T05:22:41.312Z,7.40
2017-11-25T05:25:09.669Z,7.30
2017-11-25T05:27:37.301Z,7.30
2017-11-25T05:30:04.891Z,7.40
2017-11-25T05:32:34.001Z,7.40
2017-11-25T05:35:02.382Z,7.30
2017-11-25T05:37:30.751Z,7.30
2017-11-25T05:39:59.123Z,7.30
2017-11-25T05:42:26.702Z,7.30
2017-11-25T05:44:55.061Z,7.20
2017-11-25T05:47:22.636Z,7.20
2017-11-25T05:49:50.978Z,7.10
2017-11-25T05:52:18.573Z,7.10
2017-11-25T05:54:46.947Z,7.10
2017-11-25T05:57:14.531Z,7.00
2017-11-25T05:59:42.909Z,7.10
2017-11-25T06:02:11.274Z,7.10
2017-11-25T06:04:39.621Z,7.20
2017-11-25T06:07:07.249Z,7.20
2017-11-25T06:09:34.845Z,7.20
2017-11-25T06:12:02.461Z,7.20
2017-11-25T06:14:30.038Z,7.20
2017-11-25T06:16:57.645Z,7.10
2017-11-25T06:19:25.252Z,7.10
2017-11-25T06:21:52.925Z,7.10
2017-11-25T06:24:20.525Z,7.10
2017-11-25T06:26:48.107Z,7.00
2017-11-25T06:29:16.448Z,6.90
2017-11-25T06:31:44.049Z,6.90
2017-11-25T06:34:12.379Z,7.00
2017-11-25T06:36:39.978Z,7.00
2017-11-25T06:39:08.344Z,6.80
2017-11-25T06:41:35.952Z,6.80
2017-11-25T06:44:03.541Z,6.70
2017-11-25T06:46:31.913Z,6.80
2017-11-25T06:49:00.250Z,6.70
2017-11-25T06:51:27.856Z,6.70
2017-11-25T06:53:55.451Z,6.70
2017-11-25T06:56:23.047Z,6.70
2017-11-25T06:58:50.619Z,6.80
2017-11-25T07:01:18.228Z,6.70
2017-11-25T07:03:45.815Z,6.80
2017-11-25T07:06:13.435Z,6.70
2017-11-25T07:08:41.041Z,6.60
2017-11-25T07:11:09.417Z,6.60
2017-11-25T07:13:37.017Z,6.60
2017-11-25T07:16:05.359Z,6.50
2017-11-25T07:18:32.970Z,6.50
2017-11-25T07:21:00.562Z,6.40
2017-11-25T07:23:29.870Z,6.50
2017-11-25T07:25:57.478Z,6.50
2017-11-25T07:28:25.096Z,6.50
2017-11-25T07:30:53.450Z,6.40
2017-11-25T07:33:21.053Z,6.40
2017-11-25T07:35:48.655Z,6.40
2017-11-25T07:38:16.254Z,6.40
2017-11-25T07:40:44.588Z,6.40
2017-11-25T07:43:12.180Z,6.40
2017-11-25T07:45:39.788Z,6.50
2017-11-25T07:48:07.385Z,6.50
2017-11-25T07:50:34.986Z,6.50
2017-11-25T07:53:03.346Z,6.50
2017-11-25T07:55:30.934Z,6.50
2017-11-25T07:57:58.546Z,6.50
2017-11-25T08:00:26.145Z,6.40
2017-11-25T08:02:54.493Z,6.50
2017-11-25T08:05:22.113Z,6.50
2017-11-25T08:07:49.698Z,6.50
2017-11-25T08:10:17.254Z,6.50
2017-11-25T08:12:44.775Z,6.50
2017-11-25T08:15:13.085Z,6.40
2017-11-25T08:17:40.606Z,6.40
2017-11-25T08:20:08.922Z,6.30
2017-11-25T08:22:36.512Z,6.30
2017-11-25T08:25:04.077Z,6.20
2017-11-25T08:27:31.605Z,6.20
2017-11-25T08:29:59.172Z,6.10
2017-11-25T08:32:26.725Z,6.10
2017-11-25T08:34:54.250Z,6.00
2017-11-25T08:37:21.811Z,6.00
2017-11-25T08:39:49.341Z,5.90
2017-11-25T08:42:16.913Z,5.90
2017-11-25T08:44:44.471Z,5.90
2017-11-25T08:47:11.994Z,5.90
2017-11-25T08:49:40.321Z,5.90
2017-11-25T08:52:08.217Z,5.90
2017-11-25T08:54:35.756Z,5.90
2017-11-25T08:57:03.275Z,5.90
2017-11-25T08:59:31.446Z,5.80
2017-11-25T09:01:59.739Z,5.90
2017-11-25T09:04:27.293Z,5.80
2017-11-25T09:06:55.646Z,5.80
2017-11-25T09:09:23.953Z,5.90
2017-11-25T09:11:51.514Z,5.90
2017-11-25T09:14:19.062Z,5.90
2017-11-25T09:16:46.611Z,6.00
2017-11-25T09:19:14.912Z,5.90
2017-11-25T09:21:42.681Z,5.90
2017-11-25T09:24:11.054Z,5.80
2017-11-25T09:26:38.930Z,5.80
2017-11-25T09:29:06.943Z,5.90
2017-11-25T09:31:34.495Z,5.80
2017-11-25T09:34:02.102Z,5.80
2017-11-25T09:36:30.487Z,5.80
2017-11-25T09:38:58.062Z,5.70
2017-11-25T09:41:25.938Z,5.70
2017-11-25T09:43:53.482Z,5.90
2017-11-25T09:46:21.079Z,5.80
2017-11-25T09:48:48.831Z,5.80
2017-11-25T09:51:16.546Z,5.80
2017-11-25T09:53:45.068Z,5.80
2017-11-25T09:56:12.601Z,5.70
2017-11-25T09:58:40.195Z,5.70
2017-11-25T10:01:07.738Z,5.70
2017-11-25T10:03:35.302Z,5.70
2017-11-25T10:06:02.859Z,5.70
2017-11-25T10:08:30.406Z,5.70
2017-11-25T10:10:57.957Z,5.60
2017-11-25T10:13:25.495Z,5.60
2017-11-25T10:15:53.012Z,5.70
2017-11-25T10:18:21.340Z,5.90
2017-11-25T10:20:48.879Z,5.80
2017-11-25T10:23:18.072Z,5.80
2017-11-25T10:25:45.594Z,5.80
2017-11-25T10:28:13.145Z,5.70
2017-11-25T10:30:40.692Z,5.70
2017-11-25T10:33:08.264Z,5.60
2017-11-25T10:35:35.811Z,5.60
2017-11-25T10:38:03.358Z,5.50
2017-11-25T10:40:30.911Z,5.30
2017-11-25T10:42:58.447Z,5.30
2017-11-25T10:45:26.007Z,5.20
2017-11-25T10:47:53.537Z,5.10
2017-11-25T10:50:21.092Z,5.00
2017-11-25T10:52:48.626Z,5.10
2017-11-25T10:55:16.172Z,5.10
2017-11-25T10:57:43.706Z,5.00
2017-11-25T11:00:11.254Z,4.90
2017-11-25T11:02:38.787Z,4.90
2017-11-25T11:05:06.327Z,4.90
2017-11-25T11:07:33.870Z,4.90
2017-11-25T11:10:01.407Z,4.90
2017-11-25T11:12:28.970Z,4.90
2017-11-25T11:14:56.499Z,4.80
2017-11-25T11:17:24.848Z,4.70
2017-11-25T11:19:52.378Z,4.70
2017-11-25T11:22:19.925Z,4.70
2017-11-25T11:24:47.452Z,4.70
2017-11-25T11:27:15.770Z,4.80
2017-11-25T11:29:43.306Z,4.70
2017-11-25T11:32:11.658Z,4.80
2017-11-25T11:34:39.208Z,4.80
2017-11-25T11:37:06.759Z,4.80
2017-11-25T11:39:34.313Z,5.00
2017-11-25T11:42:01.851Z,5.00
2017-11-25T11:44:29.410Z,4.90
2017-11-25T11:46:56.943Z,4.90
2017-11-25T11:49:25.255Z,4.90
2017-11-25T11:51:52.812Z,4.80
2017-11-25T11:54:20.373Z,4.90
2017-11-25T11:56:47.907Z,4.80
2017-11-25T11:59:16.228Z,4.80
2017-11-25T12:01:43.771Z,4.80
2017-11-25T12:04:11.335Z,4.80
2017-11-25T12:06:38.897Z,4.80
2017-11-25T12:09:06.474Z,4.80
2017-11-25T12:11:34.049Z,4.80
2017-11-25T12:14:01.595Z,4.90
2017-11-25T12:16:29.153Z,5.00
2017-11-25T12:18:56.686Z,5.00
2017-11-25T12:21:24.248Z,5.00
2017-11-25T12:23:51.790Z,4.90
2017-11-25T12:26:20.113Z,5.10
2017-11-25T12:28:47.649Z,5.00
2017-11-25T12:31:15.237Z,5.10
2017-11-25T12:33:42.764Z,5.30
2017-11-25T12:36:10.319Z,5.30
2017-11-25T12:38:37.847Z,5.20
2017-11-25T12:41:06.166Z,5.10
2017-11-25T12:43:33.726Z,5.10
2017-11-25T12:46:01.258Z,5.20
2017-11-25T12:48:28.793Z,5.10
2017-11-25T12:50:57.138Z,5.10
2017-11-25T12:53:24.671Z,5.10
2017-11-25T12:55:52.224Z,5.20
2017-11-25T12:58:19.750Z,5.10
2017-11-25T13:00:48.054Z,5.20
2017-11-25T13:03:15.626Z,5.20
2017-11-25T13:05:43.190Z,5.30
2017-11-25T13:08:10.739Z,5.30
2017-11-25T13:10:38.265Z,5.40
2017-11-25T13:13:06.580Z,5.50
2017-11-25T13:15:34.131Z,5.40
2017-11-25T13:18:01.690Z,5.60
2017-11-25T13:20:29.227Z,5.50
2017-11-25T13:22:57.540Z,5.50
2017-11-25T13:25:25.090Z,5.50
2017-11-25T13:27:52.623Z,5.40
2017-11-25T13:30:20.935Z,5.70
2017-11-25T13:32:48.465Z,5.60
2017-11-25T13:35:16.012Z,5.60
2017-11-25T13:37:43.580Z,5.60
2017-11-25T13:40:11.146Z,5.60
2017-11-25T13:42:38.670Z,5.70
2017-11-25T13:45:06.217Z,6.30
2017-11-25T13:47:33.760Z,6.60
2017-11-25T13:50:01.307Z,6.90
2017-11-25T13:52:28.863Z,7.00
2017-11-25T13:54:56.409Z,6.90
2017-11-25T13:57:24.718Z,6.30
2017-11-25T13:59:52.244Z,6.20
2017-11-25T14:02:20.557Z,6.00
2017-11-25T14:04:48.103Z,6.00
2017-11-25T14:07:15.645Z,5.90
2017-11-25T14:09:43.933Z,6.00
2017-11-25T14:12:11.492Z,6.00
2017-11-25T14:14:39.066Z,6.10
2017-11-25T14:17:06.641Z,6.20
2017-11-25T14:19:34.203Z,6.30
2017-11-25T14:22:01.746Z,6.90
2017-11-25T14:24:29.289Z,7.50
2017-11-25T14:26:56.826Z,8.20
2017-11-25T14:29:24.378Z,8.50
2017-11-25T14:31:52.706Z,8.90
2017-11-25T14:34:20.251Z,8.80
2017-11-25T14:36:47.791Z,8.60
2017-11-25T14:39:15.341Z,8.50
2017-11-25T14:41:42.907Z,8.10
2017-11-25T14:44:10.457Z,8.00
2017-11-25T14:46:38.012Z,7.40
2017-11-25T14:49:05.542Z,6.90
2017-11-25T14:51:33.869Z,6.30
2017-11-25T14:54:01.399Z,6.20
2017-11-25T14:56:28.943Z,6.10
2017-11-25T14:58:57.275Z,5.90
2017-11-25T15:01:24.903Z,5.90
2017-11-25T15:03:52.438Z,5.80
2017-11-25T15:06:19.993Z,5.60
2017-11-25T15:08:48.279Z,5.50
2017-11-25T15:11:15.824Z,5.40
2017-11-25T15:13:44.140Z,5.40
2017-11-25T15:16:11.716Z,5.40
2017-11-25T15:18:39.252Z,5.30
2017-11-25T15:21:06.809Z,5.10
2017-11-25T15:23:34.357Z,4.90
2017-11-25T15:26:01.898Z,4.80
2017-11-25T15:28:30.195Z,4.80
2017-11-25T15:30:57.767Z,4.80
2017-11-25T15:33:25.290Z,4.60
2017-11-25T15:35:53.619Z,4.60
2017-11-25T15:38:21.166Z,4.60
2017-11-25T15:40:48.731Z,4.40
2017-11-25T15:43:16.285Z,4.40
2017-11-25T15:45:43.819Z,4.30
2017-11-25T15:48:12.145Z,4.20
2017-11-25T15:50:39.693Z,4.10
2017-11-25T15:53:07.276Z,4.00
2017-11-25T15:55:35.625Z,3.90
2017-11-25T15:58:03.185Z,3.90
2017-11-25T16:00:30.756Z,3.90
2017-11-25T16:02:59.053Z,3.70
2017-11-25T16:05:26.614Z,3.70
2017-11-25T16:07:54.168Z,3.60
2017-11-25T16:10:21.714Z,3.60
2017-11-25T16:12:49.272Z,3.60
2017-11-25T16:15:16.814Z,3.60
2017-11-25T16:17:44.355Z,3.50
2017-11-25T16:20:11.877Z,3.50
2017-11-25T16:22:39.433Z,3.50
2017-11-25T16:25:07.055Z,3.50
2017-11-25T16:27:34.618Z,3.50
2017-11-25T16:30:02.174Z,3.50
2017-11-25T16:32:29.718Z,3.50
2017-11-25T16:34:57.261Z,3.50
2017-11-25T16:37:25.567Z,3.50
2017-11-25T16:39:53.090Z,3.50
2017-11-25T16:42:21.390Z,3.40
2017-11-25T16:44:48.954Z,3.40
2017-11-25T16:47:16.506Z,3.40
2017-11-25T16:49:44.058Z,3.40
2017-11-25T16:52:12.365Z,3.40
2017-11-25T16:54:39.934Z,3.50
2017-11-25T16:57:07.482Z,3.50
2017-11-25T16:59:35.033Z,3.40
2017-11-25T17:02:02.574Z,3.40
2017-11-25T17:04:30.915Z,3.40
2017-11-25T17:06:58.463Z,3.40
2017-11-25T17:09:25.995Z,3.40
2017-11-25T17:11:53.559Z,3.40
2017-11-25T17:14:21.095Z,3.50
2017-11-25T17:16:48.657Z,3.50
2017-11-25T17:19:16.187Z,3.50
2017-11-25T17:21:43.747Z,3.50
2017-11-25T17:24:12.066Z,3.60
2017-11-25T17:26:39.662Z,3.60
2017-11-25T17:29:07.198Z,3.60
2017-11-25T17:31:34.755Z,3.70
2017-11-25T17:34:02.326Z,3.70
2017-11-25T17:36:29.879Z,3.70
2017-11-25T17:38:57.426Z,3.60
2017-11-25T17:41:24.975Z,3.40
2017-11-25T17:43:52.540Z,3.30
2017-11-25T17:46:20.089Z,3.20
2017-11-25T17:48:47.662Z,3.10
2017-11-25T17:51:15.211Z,3.10
2017-11-25T17:53:42.759Z,3.00
2017-11-25T17:56:11.052Z,2.90
2017-11-25T17:58:39.768Z,2.80
2017-11-25T18:01:07.323Z,2.70
2017-11-25T18:03:34.914Z,2.70
2017-11-25T18:06:03.387Z,2.70
2017-11-25T18:08:30.927Z,2.60
2017-11-25T18:10:58.478Z,2.60
2017-11-25T18:13:26.347Z,2.50
2017-11-25T18:15:53.894Z,2.60
2017-11-25T18:18:21.417Z,2.60
2017-11-25T18:20:48.992Z,2.50
2017-11-25T18:23:17.294Z,2.50
2017-11-25T18:25:44.852Z,2.50
2017-11-25T18:28:12.403Z,2.60
2017-11-25T18:30:39.947Z,2.50
2017-11-25T18:33:08.250Z,2.70
2017-11-25T18:35:35.814Z,2.60
2017-11-25T18:38:03.359Z,2.70
2017-11-25T18:40:30.890Z,2.80
2017-11-25T18:43:00.131Z,2.70
2017-11-25T18:45:27.698Z,2.60
2017-11-25T18:47:55.254Z,2.70
2017-11-25T18:50:22.897Z,2.70
2017-11-25T18:52:50.455Z,2.80
2017-11-25T18:55:18.021Z,2.80
2017-11-25T18:57:45.596Z,2.80
2017-11-25T19:00:13.137Z,2.80
2017-11-25T19:02:40.671Z,2.80
2017-11-25T19:05:09.000Z,2.70
2017-11-25T19:07:36.532Z,2.70
2017-11-25T19:10:04.086Z,2.80
2017-11-25T19:12:32.386Z,2.90
2017-11-25T19:14:59.943Z,2.90
2017-11-25T19:17:27.502Z,2.90
2017-11-25T19:19:55.073Z,3.00
2017-11-25T19:22:22.624Z,2.80
2017-11-25T19:24:50.168Z,2.80
2017-11-25T19:27:17.731Z,2.80
2017-11-25T19:29:45.925Z,2.90
2017-11-25T19:32:13.490Z,2.90
2017-11-25T19:34:41.195Z,2.90
2017-11-25T19:37:09.532Z,2.90
2017-11-25T19:39:37.091Z,2.90
2017-11-25T19:42:04.662Z,2.90
2017-11-25T19:44:32.195Z,2.90
2017-11-25T19:46:59.970Z,2.80
2017-11-25T19:49:27.514Z,2.80
2017-11-25T19:51:55.834Z,2.80
2017-11-25T19:54:23.383Z,2.70
2017-11-25T19:56:50.937Z,2.70
2017-11-25T19:59:18.481Z,2.70
2017-11-25T20:01:46.066Z,2.70
2017-11-25T20:04:13.632Z,2.80
2017-11-25T20:06:41.172Z,2.80
2017-11-25T20:09:08.726Z,2.90
2017-11-25T20:11:36.277Z,2.80
2017-11-25T20:14:03.814Z,2.80
2017-11-25T20:16:32.137Z,2.70
2017-11-25T20:18:59.676Z,2.60
2017-11-25T20:21:27.243Z,2.70
2017-11-25T20:23:54.795Z,2.80
2017-11-25T20:26:22.357Z,2.90
2017-11-25T20:28:49.906Z,2.90
2017-11-25T20:31:17.504Z,2.80
2017-11-25T20:33:45.034Z,2.80
2017-11-25T20:36:12.627Z,2.80
2017-11-25T20:38:40.169Z,2.90
2017-11-25T20:41:07.709Z,2.90
2017-11-25T20:43:35.284Z,2.90
2017-11-25T20:46:02.857Z,2.80
2017-11-25T20:48:30.433Z,2.90
2017-11-25T20:50:58.017Z,2.80
2017-11-25T20:53:25.567Z,2.80
2017-11-25T20:55:53.130Z,2.70
2017-11-25T20:58:20.690Z,2.70
2017-11-25T21:00:48.269Z,2.70
2017-11-25T21:03:16.642Z,2.70
2017-11-25T21:05:45.192Z,2.80
2017-11-25T21:08:12.741Z,2.80
2017-11-25T21:10:40.310Z,2.80
2017-11-25T21:13:07.886Z,2.70
2017-11-25T21:15:35.438Z,2.60
2017-11-25T21:18:02.974Z,2.60
2017-11-25T21:20:30.542Z,2.60
2017-11-25T21:22:58.118Z,2.60
2017-11-25T21:25:25.683Z,2.50
2017-11-25T21:27:53.243Z,2.50
2017-11-25T21:30:20.804Z,2.50
2017-11-25T21:32:48.387Z,2.40
2017-11-25T21:35:15.924Z,2.30
2017-11-25T21:37:43.496Z,2.20
2017-11-25T21:40:11.050Z,2.30
2017-11-25T21:42:38.609Z,2.20
2017-11-25T21:45:06.138Z,2.20
2017-11-25T21:47:33.682Z,2.10
2017-11-25T21:50:01.234Z,2.00
2017-11-25T21:52:28.793Z,2.00
2017-11-25T21:54:56.358Z,2.10
2017-11-25T21:57:23.917Z,2.10
2017-11-25T21:59:51.497Z,2.10
2017-11-25T22:02:19.051Z,2.10
2017-11-25T22:04:46.622Z,2.10
2017-11-25T22:07:14.185Z,2.00
2017-11-25T22:09:41.744Z,2.10
2017-11-25T22:12:09.296Z,2.10
2017-11-25T22:14:36.846Z,2.10
2017-11-25T22:17:04.383Z,2.10
2017-11-25T22:19:31.938Z,2.10
2017-11-25T22:21:59.485Z,2.10
2017-11-25T22:24:27.042Z,2.10
2017-11-25T22:26:56.509Z,2.10
2017-11-25T22:29:24.050Z,2.20
2017-11-25T22:31:51.610Z,2.10
2017-11-25T22:34:19.157Z,2.10
2017-11-25T22:36:46.751Z,2.20
2017-11-25T22:39:14.310Z,2.10
2017-11-25T22:41:41.849Z,2.10
2017-11-25T22:44:09.407Z,2.20
2017-11-25T22:46:36.926Z,2.20
2017-11-25T22:49:05.234Z,2.20
2017-11-25T22:51:32.763Z,2.20
2017-11-25T22:54:00.298Z,2.30
2017-11-25T22:56:27.864Z,2.20
2017-11-25T22:58:56.189Z,2.10
2017-11-25T23:01:23.749Z,2.10
2017-11-25T23:03:51.316Z,2.00
2017-11-25T23:06:18.853Z,1.90
2017-11-25T23:08:46.399Z,1.90
2017-11-25T23:11:13.946Z,1.90
2017-11-25T23:13:42.256Z,1.90
2017-11-25T23:16:09.825Z,1.90
2017-11-25T23:18:40.317Z,1.90
2017-11-25T23:21:08.638Z,1.80
2017-11-25T23:23:36.205Z,1.80
2017-11-25T23:26:04.542Z,1.90
2017-11-25T23:28:32.089Z,1.90
2017-11-25T23:30:59.610Z,1.90
2017-11-25T23:33:27.158Z,1.90
2017-11-25T23:35:54.694Z,1.80
2017-11-25T23:38:22.997Z,1.80
2017-11-25T23:40:50.584Z,1.80
2017-11-25T23:43:18.252Z,1.80
2017-11-25T23:45:45.777Z,1.70
2017-11-25T23:48:13.309Z,1.70
2017-11-25T23:50:41.659Z,1.70
2017-11-25T23:53:09.196Z,1.70
2017-11-25T23:55:36.735Z,1.70
2017-11-25T23:58:04.266Z,1.70
